createdAt,value
2023-05-23T03:15:23.862Z,66.70
2023-05-23T03:17:51.379Z,66.70
2023-05-23T03:20:18.506Z,66.90
2023-05-23T03:22:45.959Z,66.90
2023-05-23T03:25:13.318Z,66.60
2023-05-23T03:27:40.409Z,66.50
2023-05-23T03:30:08.394Z,66.50
2023-05-23T03:32:36.350Z,66.30
2023-05-23T03:35:03.614Z,66.30
2023-05-23T03:37:30.665Z,66.40
2023-05-23T03:39:57.872Z,66.50
2023-05-23T03:42:25.183Z,66.70
2023-05-23T03:44:52.768Z,66.20
2023-05-23T03:47:19.946Z,66.10
2023-05-23T03:49:48.370Z,66.30
2023-05-23T03:52:15.516Z,66.50
2023-05-23T03:54:43.097Z,66.90
2023-05-23T03:57:10.203Z,66.30
2023-05-23T03:59:38.209Z,66.20
2023-05-23T04:02:09.840Z,66.40
2023-05-23T04:04:37.125Z,66.30
2023-05-23T04:07:05.755Z,66.50
2023-05-23T04:09:33.137Z,66.90
2023-05-23T04:12:01.212Z,66.90
2023-05-23T04:14:29.514Z,66.40
2023-05-23T04:16:59.119Z,66.90
2023-05-23T04:19:26.177Z,67.00
2023-05-23T04:21:54.047Z,67.00
2023-05-23T04:24:23.905Z,67.10
2023-05-23T04:26:51.091Z,66.70
2023-05-23T04:29:18.308Z,66.60
2023-05-23T04:31:46.105Z,66.50
2023-05-23T04:34:13.529Z,66.50
2023-05-23T04:36:40.587Z,66.40
2023-05-23T04:39:08.318Z,66.50
2023-05-23T04:41:45.335Z,66.20
2023-05-23T04:44:32.246Z,66.10
2023-05-23T04:47:16.647Z,66.00
2023-05-23T04:50:04.275Z,65.80
2023-05-23T04:52:34.101Z,65.80
2023-05-23T04:55:01.857Z,65.70
2023-05-23T04:57:29.577Z,65.90
2023-05-23T04:59:57.482Z,65.80
2023-05-23T05:02:27.147Z,65.70
2023-05-23T05:04:54.243Z,65.70
2023-05-23T05:07:21.351Z,65.50
2023-05-23T05:09:48.311Z,65.70
2023-05-23T05:12:15.479Z,65.80
2023-05-23T05:14:42.514Z,65.30
2023-05-23T05:17:09.665Z,65.70
2023-05-23T05:19:46.628Z,66.40
2023-05-23T05:22:13.743Z,66.90
2023-05-23T05:24:41.090Z,67.30
2023-05-23T05:27:09.597Z,67.90
2023-05-23T05:29:36.797Z,67.70
2023-05-23T05:32:04.287Z,67.70
2023-05-23T05:34:31.281Z,68.10
2023-05-23T05:36:59.110Z,68.80
2023-05-23T05:39:26.795Z,68.40
2023-05-23T05:41:54.948Z,68.90
2023-05-23T05:44:22.904Z,69.30
2023-05-23T05:46:51.859Z,69.30
2023-05-23T05:49:19.213Z,69.30
2023-05-23T05:51:46.814Z,68.40
2023-05-23T05:54:14.219Z,69.30
2023-05-23T05:56:42.393Z,68.70
2023-05-23T05:59:10.273Z,67.70
2023-05-23T06:01:38.621Z,66.50
2023-05-23T06:04:06.568Z,65.60
2023-05-23T06:06:34.665Z,65.50
2023-05-23T06:09:01.754Z,64.90
2023-05-23T06:11:30.020Z,63.00
2023-05-23T06:13:57.882Z,63.00
2023-05-23T06:16:25.135Z,62.90
2023-05-23T06:18:52.299Z,62.60
2023-05-23T06:21:23.479Z,62.30
2023-05-23T06:23:52.427Z,63.50
2023-05-23T06:26:19.448Z,63.10
